Time;durP1;ratioP1;P1;durP2;ratioP2;P2;SDS_P1;SDS_P2;PMS_P1;PMS_P2;Temp;Humidity;BMP_temperature;BMP_pressure;BME280_temperature;BME280_humidity;BME280_pressure;Samples;Min_cycle;Max_cycle;Signal;HPM_P1;HPM_P2
2023/03/24 00:01:01;;;;;;;5.68;2.10;;;12.10;86.00;;;;;;5048410;28;20049;-78
2023/03/24 00:03:29;;;;;;;7.13;2.70;;;12.10;86.00;;;;;;5048654;28;20052;-78
2023/03/24 00:06:00;;;;;;;7.95;3.30;;;12.00;86.10;;;;;;5040192;28;20140;-78
2023/03/24 00:08:30;;;;;;;6.90;2.65;;;12.00;86.10;;;;;;5040028;28;20512;-78
2023/03/24 00:11:02;;;;;;;6.68;2.40;;;12.00;86.20;;;;;;5049738;28;20049;-78
2023/03/24 00:13:30;;;;;;;7.53;2.97;;;12.00;86.30;;;;;;5031185;28;20153;-78
2023/03/24 00:15:58;;;;;;;8.30;3.00;;;12.00;86.20;;;;;;5046961;28;20176;-78
2023/03/24 00:18:25;;;;;;;8.57;2.72;;;12.00;86.40;;;;;;5046360;28;20056;-78
2023/03/24 00:20:57;;;;;;;7.53;2.55;;;12.00;86.60;;;;;;5045362;28;20525;-78
2023/03/24 00:23:25;;;;;;;7.63;2.55;;;12.00;86.50;;;;;;5040457;28;21056;-78
2023/03/24 00:26:02;;;;;;;8.35;2.67;;;12.00;86.70;;;;;;5047655;28;20088;-78
2023/03/24 00:28:30;;;;;;;7.47;2.80;;;12.00;86.50;;;;;;5046582;28;20492;-78
2023/03/24 00:30:58;;;;;;;8.13;2.60;;;12.00;86.60;;;;;;5034815;28;20072;-78
2023/03/24 00:33:25;;;;;;;7.35;2.85;;;12.00;86.70;;;;;;5028651;28;20093;-78
2023/03/24 00:35:52;;;;;;;7.80;2.72;;;12.00;86.80;;;;;;5031357;28;20049;-78
2023/03/24 00:38:20;;;;;;;9.35;2.92;;;12.00;86.90;;;;;;5049548;28;20049;-78
2023/03/24 00:40:49;;;;;;;5.20;2.30;;;12.00;86.90;;;;;;5047418;28;20072;-78
2023/03/24 00:43:17;;;;;;;7.35;2.30;;;12.00;87.00;;;;;;5045139;28;20057;-78
2023/03/24 00:45:45;;;;;;;6.60;1.98;;;12.00;87.10;;;;;;5047991;28;20100;-78
2023/03/24 00:48:13;;;;;;;7.00;2.60;;;12.00;87.20;;;;;;5047807;28;20642;-78
2023/03/24 00:50:45;;;;;;;8.93;2.70;;;12.00;87.30;;;;;;5047558;28;20037;-78
2023/03/24 00:53:14;;;;;;;6.97;2.60;;;11.90;87.40;;;;;;5047563;28;20053;-77
2023/03/24 00:55:44;;;;;;;5.90;2.58;;;11.90;87.40;;;;;;5031210;28;20048;-78
2023/03/24 00:58:17;;;;;;;7.45;2.80;;;11.90;87.50;;;;;;5047379;28;20049;-78
2023/03/24 01:00:46;;;;;;;6.80;2.35;;;11.90;87.60;;;;;;5039599;28;20128;-78
2023/03/24 01:03:14;;;;;;;8.18;2.80;;;11.90;87.60;;;;;;5049300;28;20064;-77
2023/03/24 01:05:46;;;;;;;7.00;1.83;;;11.90;87.50;;;;;;5047441;28;20076;-78
2023/03/24 01:08:14;;;;;;;8.70;2.90;;;12.00;87.80;;;;;;5048691;28;20088;-78
2023/03/24 01:10:49;;;;;;;7.25;2.08;;;11.90;87.60;;;;;;5030835;28;20176;-78
2023/03/24 01:13:17;;;;;;;6.68;2.47;;;11.90;87.70;;;;;;5048953;28;20064;-78
2023/03/24 01:15:46;;;;;;;6.95;2.05;;;11.90;87.70;;;;;;5048538;28;20072;-78
2023/03/24 01:18:14;;;;;;;8.40;2.50;;;12.00;87.80;;;;;;5031050;28;20501;-78
2023/03/24 01:20:44;;;;;;;7.13;3.17;;;12.00;87.60;;;;;;5030490;28;20050;-78
2023/03/24 01:23:14;;;;;;;8.45;3.17;;;11.90;87.80;;;;;;5031073;28;20042;-78
2023/03/24 01:25:44;;;;;;;6.03;2.33;;;12.00;87.90;;;;;;5048605;28;20080;-78
2023/03/24 01:28:11;;;;;;;4.90;1.63;;;12.00;87.90;;;;;;5047525;28;20053;-78
2023/03/24 01:30:39;;;;;;;7.83;2.33;;;12.00;87.90;;;;;;5030640;28;20111;-78
2023/03/24 01:33:09;;;;;;;7.15;2.47;;;11.90;87.80;;;;;;5046840;28;20623;-78
2023/03/24 01:35:36;;;;;;;5.95;2.35;;;11.90;88.00;;;;;;5047441;28;20131;-78
2023/03/24 01:38:06;;;;;;;6.40;2.35;;;11.90;88.20;;;;;;5030225;28;20155;-78
2023/03/24 01:40:35;;;;;;;5.72;2.25;;;11.90;88.30;;;;;;5030395;28;20053;-78
2023/03/24 01:43:03;;;;;;;7.37;2.80;;;11.90;88.40;;;;;;5047322;28;20119;-78
2023/03/24 01:45:51;;;;;;;6.00;2.70;;;12.00;88.40;;;;;;5047019;28;20065;-78
2023/03/24 01:48:25;;;;;;;5.22;1.92;;;12.00;88.50;;;;;;5029972;28;20041;-78
2023/03/24 01:50:56;;;;;;;5.63;2.03;;;12.00;88.40;;;;;;5042813;28;20056;-78
2023/03/24 01:53:26;;;;;;;5.18;2.60;;;12.00;88.50;;;;;;5030375;28;20045;-79
2023/03/24 01:55:54;;;;;;;5.13;1.90;;;11.90;88.40;;;;;;5029694;28;20396;-78
2023/03/24 01:58:29;;;;;;;6.30;2.63;;;12.00;88.70;;;;;;5030306;28;20495;-78
2023/03/24 02:01:11;;;;;;;5.80;2.92;;;12.00;88.40;;;;;;5038088;28;20140;-79
2023/03/24 02:04:05;;;;;;;8.25;3.00;;;12.00;88.40;;;;;;5030808;28;20542;-78
2023/03/24 02:06:34;;;;;;;6.70;2.40;;;12.00;88.40;;;;;;5047049;28;20053;-78
2023/03/24 02:09:03;;;;;;;6.20;2.40;;;12.00;88.50;;;;;;5030090;28;20498;-79
2023/03/24 02:11:33;;;;;;;6.05;2.10;;;12.00;88.30;;;;;;5030275;28;20041;-79
2023/03/24 02:14:05;;;;;;;7.90;2.55;;;12.00;88.30;;;;;;5025400;28;20037;-78
2023/03/24 02:16:50;;;;;;;6.28;2.72;;;12.00;88.30;;;;;;5046466;28;20050;-79
2023/03/24 02:19:54;;;;;;;6.03;2.80;;;12.10;88.50;;;;;;5029570;28;20076;-78
2023/03/24 02:22:44;;;;;;;6.00;2.43;;;12.10;88.20;;;;;;5023693;28;20535;-79
2023/03/24 02:25:50;;;;;;;6.82;2.20;;;12.10;88.20;;;;;;5030116;28;20046;-78
2023/03/24 02:28:30;;;;;;;7.57;2.42;;;12.10;88.20;;;;;;5041456;28;20058;-79
2023/03/24 02:31:14;;;;;;;6.70;2.63;;;12.10;88.30;;;;;;5029611;28;20057;-79
2023/03/24 02:34:30;;;;;;;5.45;2.63;;;12.10;88.40;;;;;;5038013;28;20054;-79
2023/03/24 02:37:26;;;;;;;6.93;2.83;;;12.10;88.40;;;;;;4952563;28;20997;-79
2023/03/24 02:40:18;;;;;;;7.57;2.60;;;12.10;88.40;;;;;;5011711;28;20057;-79
2023/03/24 02:42:57;;;;;;;6.88;2.42;;;12.10;88.40;;;;;;5035413;28;20120;-79
2023/03/24 02:45:34;;;;;;;5.43;2.42;;;12.10;88.40;;;;;;5029738;28;20483;-79
2023/03/24 02:48:14;;;;;;;6.15;2.60;;;12.20;88.60;;;;;;5027872;28;20050;-79
2023/03/24 02:50:48;;;;;;;6.63;2.53;;;12.20;88.60;;;;;;5027891;28;20045;-78
2023/03/24 02:53:21;;;;;;;6.05;2.60;;;12.20;88.40;;;;;;5028793;28;20069;-79
2023/03/24 02:56:26;;;;;;;7.55;2.72;;;12.20;88.50;;;;;;5045372;28;20050;-79
2023/03/24 02:59:03;;;;;;;7.25;2.83;;;12.20;88.60;;;;;;5026533;28;20045;-79
2023/03/24 03:01:36;;;;;;;5.10;2.65;;;12.20;88.70;;;;;;5026731;28;20529;-79
2023/03/24 03:04:26;;;;;;;6.20;2.63;;;12.20;88.80;;;;;;5045735;28;20061;-79
2023/03/24 03:06:58;;;;;;;5.20;2.83;;;12.20;88.70;;;;;;5029667;28;20038;-79
2023/03/24 03:09:27;;;;;;;5.55;2.60;;;12.30;88.60;;;;;;5029484;28;20543;-79
2023/03/24 03:11:58;;;;;;;5.13;2.70;;;12.30;88.60;;;;;;5029412;28;20073;-79
2023/03/24 03:14:31;;;;;;;7.00;3.08;;;12.30;88.70;;;;;;5029469;28;20780;-79
2023/03/24 03:17:03;;;;;;;5.47;2.90;;;12.30;88.80;;;;;;5029049;28;20132;-79
2023/03/24 03:19:34;;;;;;;5.60;2.80;;;12.30;88.70;;;;;;5028644;28;20550;-79
2023/03/24 03:22:04;;;;;;;6.72;3.00;;;12.30;88.70;;;;;;5046159;28;20518;-79
2023/03/24 03:24:38;;;;;;;6.10;2.53;;;12.30;88.60;;;;;;5045426;28;20053;-80
2023/03/24 03:27:13;;;;;;;6.30;2.95;;;12.40;88.40;;;;;;5028765;28;20678;-79
2023/03/24 03:29:44;;;;;;;6.87;2.93;;;12.40;88.40;;;;;;5041649;28;20085;-79
2023/03/24 03:32:18;;;;;;;5.55;2.60;;;12.40;88.40;;;;;;5030591;28;20056;-79
2023/03/24 03:34:51;;;;;;;6.13;2.75;;;12.50;88.50;;;;;;5031618;28;20056;-79
2023/03/24 03:37:27;;;;;;;4.75;2.17;;;12.50;88.50;;;;;;5046040;28;20049;-79
2023/03/24 03:39:58;;;;;;;4.95;2.67;;;12.40;88.80;;;;;;5042877;28;20049;-80
2023/03/24 03:42:27;;;;;;;4.77;2.07;;;12.50;88.60;;;;;;5027619;28;20050;-81
2023/03/24 03:44:54;;;;;;;4.10;1.83;;;12.50;88.50;;;;;;5027001;28;20155;-80
2023/03/24 03:47:22;;;;;;;3.60;1.40;;;12.50;86.50;;;;;;5028836;28;20153;-80
2023/03/24 03:49:51;;;;;;;6.90;1.42;;;12.50;86.00;;;;;;5024305;28;20538;-80
2023/03/24 03:52:18;;;;;;;4.68;1.30;;;12.30;84.10;;;;;;5020597;28;20046;-80
2023/03/24 03:54:49;;;;;;;3.77;0.70;;;12.30;83.50;;;;;;5037077;28;20353;-84
2023/03/24 03:57:18;;;;;;;3.22;0.90;;;12.20;83.20;;;;;;5022300;28;20054;-84
2023/03/24 04:00:15;;;;;;;4.60;1.00;;;12.10;83.40;;;;;;5033403;28;20058;-80
2023/03/24 04:03:07;;;;;;;5.40;1.48;;;12.00;83.10;;;;;;5039321;28;20046;-80
2023/03/24 04:05:36;;;;;;;6.18;1.58;;;11.90;82.80;;;;;;5039330;28;20100;-80
2023/03/24 04:08:20;;;;;;;3.83;1.03;;;11.80;82.60;;;;;;5026515;28;20053;-81
2023/03/24 04:11:29;;;;;;;4.53;0.90;;;11.70;83.60;;;;;;5043599;28;20049;-82
2023/03/24 04:14:31;;;;;;;5.40;1.38;;;11.60;83.70;;;;;;5041725;28;20138;-82
2023/03/24 04:17:37;;;;;;;6.30;1.50;;;11.50;84.00;;;;;;5021361;28;20064;-81
2023/03/24 04:20:11;;;;;;;8.43;1.80;;;11.50;84.10;;;;;;5031952;28;20672;-82
2023/03/24 04:22:57;;;;;;;7.13;1.47;;;11.50;84.30;;;;;;5032318;28;20872;-81
2023/03/24 04:25:33;;;;;;;4.40;0.88;;;11.40;84.40;;;;;;5032722;28;20064;-82
2023/03/24 04:28:09;;;;;;;5.82;1.30;;;11.40;84.10;;;;;;5029245;28;20492;-81
2023/03/24 04:30:43;;;;;;;5.10;1.13;;;11.30;84.40;;;;;;5012612;28;20046;-82
2023/03/24 04:33:21;;;;;;;7.05;1.20;;;11.30;84.40;;;;;;5012500;28;20550;-82
2023/03/24 04:35:56;;;;;;;4.47;1.30;;;11.30;84.40;;;;;;5012104;28;20054;-81
2023/03/24 04:38:52;;;;;;;6.53;1.23;;;11.30;84.00;;;;;;5027930;28;20140;-82
2023/03/24 04:41:32;;;;;;;5.43;1.27;;;11.20;83.50;;;;;;5012552;28;20054;-81
2023/03/24 04:44:23;;;;;;;4.90;1.10;;;11.20;83.00;;;;;;5027882;28;20120;-81
2023/03/24 04:47:11;;;;;;;4.72;1.27;;;11.10;83.10;;;;;;5012795;28;20045;-82
2023/03/24 04:49:42;;;;;;;7.77;1.10;;;11.10;83.30;;;;;;5012299;28;20064;-82
2023/03/24 04:52:09;;;;;;;7.10;1.38;;;11.00;83.50;;;;;;5012670;28;20137;-82
2023/03/24 04:54:37;;;;;;;8.15;1.67;;;11.00;83.50;;;;;;5015186;28;20053;-82
2023/03/24 04:57:06;;;;;;;5.80;1.30;;;11.10;83.60;;;;;;5048746;28;20124;-82
2023/03/24 04:59:39;;;;;;;12.48;1.98;;;11.00;83.90;;;;;;5032266;28;20053;-81
2023/03/24 05:02:08;;;;;;;8.30;1.10;;;11.00;83.80;;;;;;5048401;28;20672;-82
2023/03/24 05:04:55;;;;;;;7.47;1.20;;;11.00;83.50;;;;;;5048187;28;20100;-82
2023/03/24 05:07:32;;;;;;;11.32;1.58;;;10.90;83.40;;;;;;5032030;28;20077;-81
2023/03/24 05:10:02;;;;;;;5.65;1.48;;;10.90;83.40;;;;;;5031758;28;20049;-82
2023/03/24 05:12:39;;;;;;;8.75;1.55;;;10.80;83.40;;;;;;5031223;28;20051;-82
2023/03/24 05:15:29;;;;;;;11.53;1.83;;;10.80;83.50;;;;;;5026799;28;20132;-82
2023/03/24 05:18:26;;;;;;;8.43;1.27;;;10.80;83.70;;;;;;5031451;28;20592;-81
2023/03/24 05:20:58;;;;;;;9.93;1.75;;;10.80;83.40;;;;;;5031456;28;20096;-81
2023/03/24 05:23:26;;;;;;;7.25;1.17;;;10.70;83.20;;;;;;5031431;28;20049;-81
2023/03/24 05:25:55;;;;;;;6.68;1.17;;;10.70;83.00;;;;;;5048018;28;20567;-82
2023/03/24 05:28:24;;;;;;;5.67;1.27;;;10.70;83.10;;;;;;5031338;28;21174;-81
2023/03/24 05:30:54;;;;;;;5.95;1.30;;;10.60;83.10;;;;;;5033168;28;20057;-81
2023/03/24 05:33:47;;;;;;;9.80;1.30;;;10.60;83.10;;;;;;5045553;28;20512;-81
2023/03/24 05:36:19;;;;;;;7.32;0.73;;;10.60;83.20;;;;;;5031358;28;20049;-81
2023/03/24 05:38:54;;;;;;;7.28;1.23;;;10.50;83.40;;;;;;5030962;28;20053;-81
2023/03/24 05:41:25;;;;;;;6.83;1.00;;;10.50;83.30;;;;;;5031621;28;20050;-81
2023/03/24 05:43:52;;;;;;;7.57;1.38;;;10.50;83.20;;;;;;5031555;28;20080;-81
2023/03/24 05:46:20;;;;;;;5.18;0.93;;;10.40;83.40;;;;;;5030931;28;20991;-81
2023/03/24 05:48:50;;;;;;;7.50;1.50;;;10.40;83.40;;;;;;5030669;28;20092;-81
2023/03/24 05:51:21;;;;;;;5.72;0.80;;;10.40;83.60;;;;;;5030872;28;20107;-81
2023/03/24 05:53:57;;;;;;;5.47;1.20;;;10.30;83.40;;;;;;5047309;28;20160;-81
2023/03/24 05:56:44;;;;;;;6.47;0.88;;;10.30;83.40;;;;;;5046475;28;20045;-81
2023/03/24 05:59:27;;;;;;;9.02;1.27;;;10.30;83.30;;;;;;5030825;28;20064;-81
2023/03/24 06:01:57;;;;;;;6.35;1.02;;;10.20;83.50;;;;;;5047745;28;20577;-81
2023/03/24 06:04:38;;;;;;;6.68;1.02;;;10.20;83.70;;;;;;5030606;28;20554;-81
2023/03/24 06:07:15;;;;;;;9.33;1.70;;;10.20;83.80;;;;;;5030757;28;20148;-81
2023/03/24 06:09:45;;;;;;;7.30;1.33;;;10.20;83.60;;;;;;5030554;28;20050;-81
2023/03/24 06:12:14;;;;;;;8.57;1.20;;;10.20;83.60;;;;;;5047738;28;20080;-81
2023/03/24 06:14:51;;;;;;;11.30;1.30;;;10.10;83.70;;;;;;5030604;28;20042;-80
2023/03/24 06:17:20;;;;;;;9.05;1.30;;;10.20;83.70;;;;;;5027578;28;20053;-81
2023/03/24 06:19:49;;;;;;;7.23;1.37;;;10.10;83.70;;;;;;5010886;28;20543;-81
2023/03/24 06:22:48;;;;;;;9.18;1.88;;;10.10;84.00;;;;;;5018890;28;20045;-81
2023/03/24 06:25:20;;;;;;;7.72;1.13;;;10.10;84.20;;;;;;5014137;28;20062;-81
2023/03/24 06:28:11;;;;;;;10.20;1.42;;;10.10;84.40;;;;;;5026694;28;20137;-81
2023/03/24 06:30:39;;;;;;;6.55;1.13;;;10.10;84.40;;;;;;5029863;28;20060;-81
2023/03/24 06:33:07;;;;;;;5.53;1.20;;;10.10;84.40;;;;;;5030325;28;20046;-81
2023/03/24 06:35:35;;;;;;;6.72;1.23;;;10.10;84.40;;;;;;5028714;28;20077;-80
2023/03/24 06:38:11;;;;;;;7.85;1.05;;;10.10;84.40;;;;;;5022645;28;20617;-81
2023/03/24 06:40:39;;;;;;;7.45;0.98;;;10.20;84.30;;;;;;5030455;28;20096;-81
2023/03/24 06:43:07;;;;;;;5.65;0.80;;;10.20;84.10;;;;;;5037843;28;20689;-80
2023/03/24 06:45:39;;;;;;;8.10;1.10;;;10.10;84.20;;;;;;5021561;28;20132;-81
2023/03/24 06:48:08;;;;;;;7.40;1.45;;;10.20;84.20;;;;;;5024985;28;20609;-81
2023/03/24 06:50:36;;;;;;;10.63;1.27;;;10.20;83.90;;;;;;5031543;28;20057;-81
2023/03/24 06:53:09;;;;;;;7.82;1.40;;;10.20;83.90;;;;;;5019017;28;20045;-81
2023/03/24 06:55:38;;;;;;;12.07;1.90;;;10.20;83.70;;;;;;5022438;28;20878;-81
2023/03/24 06:58:06;;;;;;;10.17;1.80;;;10.30;83.80;;;;;;5023103;28;20054;-81
2023/03/24 07:00:41;;;;;;;13.18;1.80;;;10.30;83.70;;;;;;5022921;28;20068;-81
2023/03/24 07:03:28;;;;;;;5.55;1.20;;;10.30;83.50;;;;;;5030367;28;20053;-81
2023/03/24 07:06:18;;;;;;;11.45;2.03;;;10.30;83.60;;;;;;5046213;28;20051;-81
2023/03/24 07:08:51;;;;;;;6.43;1.10;;;10.30;83.70;;;;;;5030211;28;20053;-81
2023/03/24 07:11:18;;;;;;;12.30;1.97;;;10.30;83.30;;;;;;5035853;28;20123;-80
2023/03/24 07:13:52;;;;;;;14.25;2.00;;;10.40;83.00;;;;;;5033775;28;20053;-80
2023/03/24 07:16:20;;;;;;;10.32;1.75;;;10.40;82.80;;;;;;5033147;28;20046;-80
2023/03/24 07:18:52;;;;;;;12.15;1.42;;;10.40;82.90;;;;;;5031345;28;20060;-80
2023/03/24 07:21:19;;;;;;;11.07;1.70;;;10.40;82.70;;;;;;5031615;28;20100;-80
2023/03/24 07:23:51;;;;;;;14.30;2.03;;;10.40;82.70;;;;;;5041861;28;20052;-80
2023/03/24 07:26:22;;;;;;;10.45;1.23;;;10.40;82.70;;;;;;5048471;28;20081;-80
2023/03/24 07:28:49;;;;;;;10.98;1.83;;;10.40;82.90;;;;;;5048535;28;20064;-80
2023/03/24 07:31:43;;;;;;;14.43;2.20;;;10.40;83.10;;;;;;5009188;28;20147;-80
2023/03/24 07:34:13;;;;;;;10.65;1.45;;;10.40;83.10;;;;;;5033336;28;20049;-80
2023/03/24 07:36:40;;;;;;;11.40;1.80;;;10.50;82.70;;;;;;5026896;28;20156;-80
2023/03/24 07:39:14;;;;;;;14.38;2.33;;;10.50;82.60;;;;;;5048687;28;20746;-81
2023/03/24 07:41:41;;;;;;;12.25;1.70;;;10.50;82.70;;;;;;5050543;28;20131;-83
2023/03/24 07:44:19;;;;;;;12.77;2.08;;;10.50;82.60;;;;;;5028029;28;20098;-80
2023/03/24 07:46:50;;;;;;;15.73;2.45;;;10.50;82.50;;;;;;5030413;28;20073;-80
2023/03/24 07:49:17;;;;;;;9.83;1.63;;;10.60;82.20;;;;;;5023008;28;20137;-80
2023/03/24 07:51:47;;;;;;;14.88;2.55;;;10.60;82.00;;;;;;5028083;28;20052;-79
2023/03/24 07:54:23;;;;;;;13.57;2.45;;;10.60;81.80;;;;;;5028991;28;20050;-81
2023/03/24 07:56:52;;;;;;;10.98;1.85;;;10.60;82.10;;;;;;5024390;28;20056;-81
2023/03/24 07:59:19;;;;;;;14.45;2.47;;;10.60;82.30;;;;;;5026842;28;20112;-81
2023/03/24 08:01:49;;;;;;;14.23;2.80;;;10.70;82.10;;;;;;5045561;28;20104;-80
2023/03/24 08:04:19;;;;;;;14.80;2.50;;;10.70;82.00;;;;;;5023892;28;20050;-79
2023/03/24 08:06:58;;;;;;;17.10;2.70;;;10.70;81.70;;;;;;5018793;28;20064;-81
2023/03/24 08:09:27;;;;;;;9.57;1.88;;;10.70;82.30;;;;;;5036500;28;20086;-81
2023/03/24 08:11:54;;;;;;;9.65;1.98;;;10.80;82.10;;;;;;5047505;28;20083;-81
2023/03/24 08:14:21;;;;;;;14.93;2.63;;;10.80;81.70;;;;;;5048937;28;20136;-81
2023/03/24 08:16:48;;;;;;;15.10;2.83;;;10.80;81.80;;;;;;5028431;28;20045;-79
2023/03/24 08:19:15;;;;;;;15.40;2.88;;;10.80;81.50;;;;;;5046412;28;20141;-78
2023/03/24 08:21:43;;;;;;;21.38;3.00;;;10.80;81.30;;;;;;5032690;28;20069;-79
2023/03/24 08:24:10;;;;;;;13.57;2.50;;;10.90;81.20;;;;;;5030732;28;20451;-79
2023/03/24 08:26:39;;;;;;;18.70;2.70;;;10.90;81.50;;;;;;5042289;28;20137;-79
2023/03/24 08:29:06;;;;;;;16.08;2.05;;;11.00;80.70;;;;;;5041219;28;20061;-79
2023/03/24 08:31:34;;;;;;;17.88;3.00;;;10.90;80.70;;;;;;5041402;28;20531;-79
2023/03/24 08:34:01;;;;;;;14.45;2.53;;;10.90;80.30;;;;;;5047335;28;20061;-79
2023/03/24 08:36:28;;;;;;;15.40;2.72;;;10.90;80.00;;;;;;5048304;28;20053;-79
2023/03/24 08:38:55;;;;;;;13.80;1.90;;;10.90;79.90;;;;;;5026316;28;20055;-79
2023/03/24 08:41:33;;;;;;;15.80;2.67;;;10.90;80.40;;;;;;5046519;28;20103;-79
2023/03/24 08:44:03;;;;;;;13.88;2.47;;;11.00;80.30;;;;;;5032072;28;20061;-79
2023/03/24 08:46:30;;;;;;;15.85;2.63;;;11.00;80.30;;;;;;5048106;28;20044;-80
2023/03/24 08:48:58;;;;;;;16.52;2.58;;;11.00;80.90;;;;;;5048251;28;20136;-81
2023/03/24 08:51:26;;;;;;;15.57;2.33;;;11.10;80.40;;;;;;5047242;28;20053;-83
2023/03/24 08:53:54;;;;;;;8.57;1.70;;;11.10;79.30;;;;;;5031140;28;20207;-83
2023/03/24 08:56:21;;;;;;;11.80;1.83;;;11.10;78.70;;;;;;5048126;28;20042;-83
2023/03/24 08:58:50;;;;;;;11.57;2.25;;;11.20;78.60;;;;;;5047220;28;20119;-83
2023/03/24 09:01:19;;;;;;;10.82;2.00;;;11.30;77.80;;;;;;5048288;28;20127;-83
2023/03/24 09:03:46;;;;;;;12.43;1.50;;;11.30;75.50;;;;;;5044090;28;20088;-83
2023/03/24 09:06:14;;;;;;;12.30;1.80;;;11.20;75.30;;;;;;5018596;28;20598;-83
2023/03/24 09:08:41;;;;;;;11.80;1.55;;;11.20;75.00;;;;;;5039550;28;20057;-82
2023/03/24 09:11:14;;;;;;;9.45;1.55;;;11.10;74.50;;;;;;5052929;28;20175;-82
2023/03/24 09:13:42;;;;;;;6.68;1.02;;;11.10;74.20;;;;;;5047988;28;20111;-82
2023/03/24 09:16:09;;;;;;;14.17;2.37;;;11.10;74.20;;;;;;5028402;28;20069;-80
2023/03/24 09:18:38;;;;;;;13.63;1.95;;;11.10;73.90;;;;;;5037813;28;20068;-80
2023/03/24 09:21:06;;;;;;;12.00;2.08;;;11.00;74.60;;;;;;5045529;28;20503;-80
2023/03/24 09:23:33;;;;;;;12.77;1.63;;;11.00;74.90;;;;;;5045770;28;20606;-79
2023/03/24 09:26:01;;;;;;;11.13;1.77;;;10.90;75.80;;;;;;5036864;28;20161;-79
2023/03/24 09:28:29;;;;;;;13.50;2.00;;;10.90;75.90;;;;;;5042646;28;20517;-79
2023/03/24 09:31:00;;;;;;;11.93;2.00;;;11.00;75.10;;;;;;5047804;28;20147;-80
2023/03/24 09:33:29;;;;;;;7.60;1.60;;;11.10;73.20;;;;;;5030023;28;20153;-79
2023/03/24 09:35:59;;;;;;;9.27;1.42;;;11.10;70.40;;;;;;5047703;28;20049;-79
2023/03/24 09:38:26;;;;;;;12.48;2.10;;;11.10;70.10;;;;;;5042544;28;20727;-80
2023/03/24 09:40:56;;;;;;;10.07;1.73;;;11.10;70.10;;;;;;5042162;28;20521;-81
2023/03/24 09:43:31;;;;;;;9.48;1.77;;;11.10;69.20;;;;;;5038476;28;20244;-80
2023/03/24 09:46:01;;;;;;;9.20;1.33;;;11.10;70.10;;;;;;5045998;28;20407;-80
2023/03/24 09:48:35;;;;;;;12.48;1.60;;;11.10;70.80;;;;;;5027592;28;20053;-78
2023/03/24 09:51:08;;;;;;;12.55;2.17;;;11.10;71.20;;;;;;5034677;28;20654;-78
2023/03/24 09:53:43;;;;;;;10.57;1.70;;;11.10;69.70;;;;;;5039554;28;20050;-78
2023/03/24 09:56:14;;;;;;;10.50;1.95;;;11.10;69.40;;;;;;5046086;28;20057;-79
2023/03/24 09:58:43;;;;;;;11.95;2.03;;;11.10;69.40;;;;;;5046676;28;20093;-78
2023/03/24 10:01:14;;;;;;;10.63;1.88;;;11.10;69.90;;;;;;5044876;28;20547;-78
2023/03/24 10:03:42;;;;;;;9.95;2.00;;;11.20;68.40;;;;;;5041972;28;20107;-80
2023/03/24 10:06:14;;;;;;;11.70;1.73;;;11.20;69.10;;;;;;5032777;28;20104;-82
2023/03/24 10:08:43;;;;;;;15.50;2.30;;;11.10;69.60;;;;;;5041133;28;20511;-81
2023/03/24 10:11:18;;;;;;;10.27;2.25;;;11.20;69.50;;;;;;5045161;28;21054;-81
2023/03/24 10:13:57;;;;;;;13.43;2.03;;;11.30;69.40;;;;;;5032154;28;20049;-80
2023/03/24 10:16:30;;;;;;;14.95;2.20;;;11.30;69.90;;;;;;5044589;28;20509;-80
2023/03/24 10:19:04;;;;;;;12.33;1.77;;;11.40;69.60;;;;;;5048005;28;20144;-80
2023/03/24 10:21:35;;;;;;;8.13;1.15;;;11.50;68.70;;;;;;5047165;28;20054;-82
2023/03/24 10:24:12;;;;;;;12.75;2.25;;;11.60;68.70;;;;;;5042724;28;20061;-79
2023/03/24 10:26:48;;;;;;;8.13;1.35;;;11.70;68.40;;;;;;5038958;28;20071;-79
2023/03/24 10:29:23;;;;;;;11.13;1.60;;;11.70;67.60;;;;;;5019373;28;20044;-79
2023/03/24 10:31:54;;;;;;;12.50;2.00;;;11.70;67.50;;;;;;5029988;28;20276;-79
2023/03/24 10:34:24;;;;;;;12.68;2.30;;;11.80;68.50;;;;;;5047129;28;20068;-80
2023/03/24 10:36:53;;;;;;;9.68;1.90;;;11.90;67.90;;;;;;5041479;28;20655;-80
2023/03/24 10:39:20;;;;;;;9.32;1.45;;;11.90;67.10;;;;;;5039148;28;20049;-80
2023/03/24 10:41:48;;;;;;;10.20;1.67;;;12.00;66.20;;;;;;5044757;28;20143;-80
2023/03/24 10:44:16;;;;;;;11.83;1.93;;;12.00;66.50;;;;;;5044462;28;20053;-80
2023/03/24 10:46:47;;;;;;;7.78;1.77;;;12.10;67.20;;;;;;5046377;28;20041;-80
2023/03/24 10:49:19;;;;;;;14.75;2.35;;;12.20;65.20;;;;;;5039527;28;20048;-80
2023/03/24 10:51:48;;;;;;;9.00;1.30;;;12.20;66.70;;;;;;5045432;28;20628;-80
2023/03/24 10:54:19;;;;;;;12.43;1.95;;;12.30;66.50;;;;;;5047288;28;20427;-81
2023/03/24 10:56:49;;;;;;;6.80;1.40;;;12.30;66.20;;;;;;5044006;28;20881;-81
2023/03/24 10:59:24;;;;;;;14.05;2.22;;;12.40;64.80;;;;;;5029690;28;20100;-81
2023/03/24 11:01:57;;;;;;;10.68;1.73;;;12.50;63.60;;;;;;5043105;28;20163;-80
2023/03/24 11:04:24;;;;;;;11.75;1.65;;;12.50;62.60;;;;;;5040732;28;20060;-80
2023/03/24 11:07:01;;;;;;;10.02;1.55;;;12.50;61.50;;;;;;5045830;28;20052;-80
2023/03/24 11:09:31;;;;;;;8.77;1.07;;;12.50;62.70;;;;;;5029527;28;20069;-80
2023/03/24 11:12:03;;;;;;;8.80;1.33;;;12.50;62.90;;;;;;5044885;28;20050;-80
2023/03/24 11:14:30;;;;;;;11.70;1.77;;;12.50;62.40;;;;;;5047489;28;20490;-80
2023/03/24 11:17:10;;;;;;;6.90;0.93;;;12.50;62.10;;;;;;5043087;28;20084;-80
2023/03/24 11:19:38;;;;;;;7.85;1.48;;;12.50;62.90;;;;;;5048176;28;20049;-80
2023/03/24 11:22:07;;;;;;;10.03;1.43;;;12.50;61.30;;;;;;5049566;28;20944;-79
2023/03/24 11:24:38;;;;;;;10.55;1.48;;;12.50;61.20;;;;;;5043724;28;20053;-80
2023/03/24 11:27:05;;;;;;;9.23;1.38;;;12.50;61.90;;;;;;5046149;28;20538;-81
2023/03/24 11:29:38;;;;;;;7.60;0.93;;;12.50;62.50;;;;;;5049808;28;20053;-81
2023/03/24 11:32:13;;;;;;;10.85;2.15;;;12.50;62.30;;;;;;5049447;28;20132;-80
2023/03/24 11:34:45;;;;;;;8.80;1.83;;;12.50;62.70;;;;;;5043532;28;20045;-81
2023/03/24 11:37:15;;;;;;;12.45;1.70;;;12.50;63.80;;;;;;5049915;28;20084;-81
2023/03/24 11:39:44;;;;;;;11.50;1.75;;;12.50;63.80;;;;;;5046776;28;20045;-81
2023/03/24 11:42:16;;;;;;;10.38;1.23;;;12.50;63.60;;;;;;5042092;28;20061;-82
2023/03/24 11:44:50;;;;;;;12.45;1.35;;;12.60;64.10;;;;;;5032848;28;20156;-81
2023/03/24 11:47:28;;;;;;;10.27;1.70;;;12.60;64.60;;;;;;5042561;28;20054;-83
2023/03/24 11:50:13;;;;;;;10.68;1.40;;;12.60;64.30;;;;;;5043562;28;20045;-81
2023/03/24 11:52:46;;;;;;;11.38;1.63;;;12.70;64.30;;;;;;5031870;28;20127;-82
2023/03/24 11:55:17;;;;;;;9.30;1.60;;;12.70;65.20;;;;;;5045800;28;20050;-81
2023/03/24 11:57:52;;;;;;;11.73;1.65;;;12.70;65.10;;;;;;5037280;28;20054;-80
2023/03/24 12:00:25;;;;;;;15.53;2.13;;;12.80;65.60;;;;;;5039734;28;20112;-81
2023/03/24 12:03:14;;;;;;;9.55;1.60;;;12.80;64.90;;;;;;5044806;28;20180;-77
2023/03/24 12:05:46;;;;;;;9.60;1.55;;;12.90;64.50;;;;;;5042768;28;20046;-78
2023/03/24 12:08:23;;;;;;;8.75;1.60;;;12.90;65.20;;;;;;5041726;28;20081;-76
2023/03/24 12:11:07;;;;;;;12.73;1.90;;;12.80;65.20;;;;;;5039287;28;20184;-80
2023/03/24 12:13:37;;;;;;;13.57;1.80;;;12.80;65.10;;;;;;5044076;28;20096;-78
2023/03/24 12:16:20;;;;;;;8.75;1.15;;;12.80;65.00;;;;;;5028645;28;20411;-88
2023/03/24 12:19:20;;;;;;;9.90;1.75;;;12.80;65.40;;;;;;5037473;28;20129;-81
2023/03/24 12:21:56;;;;;;;13.48;2.00;;;12.80;65.10;;;;;;5042357;28;20145;-81
2023/03/24 12:24:32;;;;;;;11.80;1.70;;;12.80;66.10;;;;;;5046453;28;20128;-81
2023/03/24 12:27:01;;;;;;;8.00;1.50;;;13.00;64.30;;;;;;5030247;28;20055;-81
2023/03/24 12:29:44;;;;;;;10.15;1.55;;;13.10;62.80;;;;;;5046493;28;20083;-82
2023/03/24 12:32:24;;;;;;;9.90;1.58;;;13.10;59.00;;;;;;5044226;28;20057;-81
2023/03/24 12:35:19;;;;;;;8.63;1.33;;;13.30;58.30;;;;;;5036348;28;20053;-80
2023/03/24 12:37:53;;;;;;;6.65;0.90;;;13.30;58.30;;;;;;5044724;28;20049;-80
2023/03/24 12:40:56;;;;;;;9.90;1.67;;;13.30;56.80;;;;;;5024349;28;20046;-80
2023/03/24 12:43:31;;;;;;;9.77;1.20;;;13.30;56.90;;;;;;5043637;28;20052;-80
2023/03/24 12:46:05;;;;;;;5.45;0.90;;;13.30;58.30;;;;;;5036739;28;20156;-81
2023/03/24 12:48:51;;;;;;;9.50;0.98;;;13.30;58.10;;;;;;5041914;28;20519;-80
2023/03/24 12:51:30;;;;;;;7.13;0.77;;;13.30;58.40;;;;;;5043900;28;20121;-80
2023/03/24 12:54:12;;;;;;;10.27;1.60;;;13.30;59.30;;;;;;5048505;28;20108;-80
2023/03/24 12:56:43;;;;;;;12.63;2.00;;;13.30;59.10;;;;;;5046187;28;20897;-81
2023/03/24 12:59:15;;;;;;;8.15;1.30;;;13.30;59.80;;;;;;5042090;28;20569;-79
2023/03/24 13:01:45;;;;;;;10.35;1.48;;;13.30;60.90;;;;;;5029556;28;20057;-80
2023/03/24 13:04:19;;;;;;;8.25;1.00;;;13.20;62.80;;;;;;5046426;28;20069;-80
2023/03/24 13:07:30;;;;;;;5.90;0.70;;;13.20;62.00;;;;;;5047921;28;20131;-80
2023/03/24 13:10:05;;;;;;;13.48;2.10;;;13.30;62.10;;;;;;5002764;28;20504;-80
2023/03/24 13:12:38;;;;;;;10.23;1.63;;;13.30;63.20;;;;;;5006138;28;20066;-80
2023/03/24 13:15:16;;;;;;;9.20;1.67;;;13.30;63.30;;;;;;5012557;28;20050;-80
2023/03/24 13:17:49;;;;;;;8.35;1.33;;;13.50;59.90;;;;;;5036469;28;20049;-80